Hauptseite
METAR-TAF:

METAR-TAF

Flughäfen :

Flughafen Toulon-Hyères

Toulon, Frankreich

Breite: 43-06N, Länge: 006-09E, Höhe: 3 m

Beobachtung

Neuester Wetterbericht von vor 19 Minuten, um 07:30 UTC
Wind 10 kt aus West
Temperatur 25°C
Luftfeuchtigkeit 26%
Luftdruck 1016 hPa
Sichtweite 10 km oder mehr
keine Wolken unter 1500 m und keine Kumulonimbus oder Gewitterwolken

METAR: LFTH 220730Z AUTO 27010KT CAVOK 25/04 Q1016 NOSIG

Zeit: 09:49 (07:49 UTC)

Prognose

Neuester Wetterbericht von vor 5 Stunden und 49 Minuten, um 02:00 UTC
Gültige Prognose vom 22 um 03 UTC bis 23 um 03 UTC
Wind 12 kt aus West
Sichtweite 10 km oder mehr
keine Wolken unter 1500 m und keine Kumulonimbus oder Gewitterwolken
Zeitweise
vom 22 um 12 UTC bis 22 um 18 UTC
Wind 15 kt aus West, Böen bis zu 25 kt

TAF: LFTH 220200Z 2203/2303 27012KT CAVOK TEMPO 2212/2218 28015G25KT

Wetterbeobachtungen und Prognosen von mehr als 4000 Flughäfen (METAR und TAF Bericht).

Die verfügbaren Stationen werden durch gelbe und rote Markierungen auf der Karte dargestellt.

Führen Sie die Maus auf sie, um den Namen der Station zu sehen.

Darauf klicken, um die Beobachtung von Wetterbeobachtungen und Prognosen zu sehen.

Um die Karte zu ändern : klicken Sie auf den grünen Tasten mit einem schwarzen Kreuz Zum Vergrößern, auf den grünen Button mit einem Gedankenstrich zu verkleinern, oder auf die grünen Pfeile für benachbarte Karten.


METAR-TAF: